Station info - map view · info · telemetry · weather · raw · status · beacons · messages · bulletins · browse · moving · my account
Callsign, ship name or locator: Clear       
It is possible to search using wildcards (*?) after a prefix. Example: OH*
APRS station NA0US-3 - show graphs
Map loading...
Comment: IRLP Node 3124
Mic-E message: Off duty
Last status: TinyTrak3 v1.1
Location: 40°08.45' N 105°06.96' W - locator DN70KD63BT - show map - static map
3.9 miles Northeast bearing 49° from Niwot, Boulder County, Colorado, United States [?]
6.1 miles Northeast bearing 29° from Gunbarrel, Boulder County, Colorado, United States
28.6 miles North bearing 346° from Denver, Denver County, Colorado, United States
32.1 miles Northwest bearing 332° from Aurora, Adams County, Colorado, United States
Last position: 2019-09-11 21:07:49 EDT (4d 23h36m ago)
2019-09-11 19:07:49 MDT local time at Niwot, United States [?]
Altitude: 5016 ft
Course: 66°
Speed: 0 MPH
Last path: NA0US-3>TPPXTU via N0EPA-1*,WIDE2-1,qAR,KD0TQT-10 (good)
Positions stored: 4806
Packet rate: 132 seconds between packets on average during 6483 seconds.
Other SSIDs: NA0US-9
Stations near current position of NA0US-3 - show more
callsign distance last heard - EDT      callsign distance last heard - EDT
NA0US-930.6 yards 18°2019-09-04 14:06:33 EW14880.5 miles 105°2019-09-16 20:40:15
AF0W0.6 miles 301°2019-09-16 08:47:28 KD0OTR-90.6 miles 252°2019-08-28 10:16:17
N3GPS0.7 miles 121°2019-09-08 18:09:37 AF0W-10.8 miles 224°2019-09-16 20:28:56
K0ANS-91.5 miles 358°2019-08-19 19:54:29 147.270CO1.7 miles 27°2019-09-16 20:29:19
KE0EE-91.9 miles 25°2019-09-16 20:39:56 EW00132.3 miles 278°2019-09-16 20:43:19
KF0VC-112.8 miles 301°2019-08-19 20:13:58 KD0OTR-12.8 miles 166°2019-08-22 10:56:47
K0IVV-73.0 miles 52°2019-08-26 04:10:58 DW76913.1 miles 4°2019-09-16 20:31:12
KB0RVE3.2 miles 352°2019-09-16 20:14:44 N0EPA-93.3 miles 29°2019-09-14 17:14:18
N0EPA-13.3 miles 27°2019-09-16 20:03:14 W0ASB-93.3 miles 1°2019-09-12 09:38:17
KE0WTC-53.4 miles 352°2019-09-08 15:45:40 KE0WTC-93.4 miles 352°2019-09-16 18:05:45
Stations which heard NA0US-3 directly on radio –
callsign pkts first heard - EDT last heard longest (tx => rx) longest at - EDT
WERNER 2 2019-09-05 09:38:56 2019-09-05 09:40:37 DM69WO > DN60PK 68.1 miles 329° 2019-09-05 09:40:37
RCHFLD 1 2019-09-05 16:03:37 2019-09-05 16:03:37 DM47QR > DM38XM 94.4 miles 306° 2019-09-05 16:03:37
UBUTTE 26 2019-09-05 13:34:46 2019-09-11 14:58:59 DM58AW > DM58QN 73.1 miles 109° 2019-09-11 13:15:55
BAXTER 42 2019-09-05 12:33:53 2019-09-11 14:49:28 DM58HW > DM59MO 51.2 miles 28° 2019-09-11 13:38:31
SUNLGT 34 2019-09-05 10:27:51 2019-09-11 17:23:52 DM69OQ > DM69HK 36.1 miles 241° 2019-09-05 10:30:43
GRAND 52 2019-09-05 11:52:23 2019-09-11 15:26:44 DM59NF > DM59VC 37.8 miles 105° 2019-09-11 14:07:20
BALD 2 2019-09-05 13:29:39 2019-09-05 13:34:08 DM59IA > DM58IM 32.6 miles 181° 2019-09-05 13:29:39
VAILMT 28 2019-09-05 09:54:23 2019-09-11 18:22:26 DM69PR > DM69TO 20.8 miles 111° 2019-09-05 10:23:36
ABAJO 8 2019-09-05 13:41:23 2019-09-11 13:32:28 DM48TW > DM57GU 89.6 miles 148° 2019-09-05 14:35:38
N2XGL-12 3 2019-09-11 20:33:59 2019-09-11 20:37:43 DN70KD > DN70KE 4.4 miles 337° 2019-09-11 20:37:43
K7YI-4 21 2019-09-05 13:48:16 2019-09-11 13:14:25 DM58DX > DM49JF 79.7 miles 283° 2019-09-05 13:48:16
ANVIL 37 2019-09-05 11:16:31 2019-09-11 17:09:53 DM59UD > DM69AM 31.3 miles 36° 2019-09-05 12:15:26
RBERRY 9 2019-09-05 12:15:33 2019-09-11 15:00:17 DM59UD > DM58VH 58.8 miles 175° 2019-09-05 12:15:33
CLIMAX 7 2019-09-05 09:37:14 2019-09-11 18:41:12 DM69XP > DM69VJ 20.1 miles 205° 2019-09-05 09:37:14
SWANMT 20 2019-09-05 09:31:43 2019-09-11 18:48:45 DM79AQ > DM69XO 8.1 miles 218° 2019-09-11 18:48:45
N2XGL-5 2 2019-09-05 08:24:07 2019-09-11 20:32:29 DM79JW > DN70KE 18.0 miles 15° 2019-09-05 08:24:07
DTSERO 36 2019-09-05 09:39:42 2019-09-11 18:09:37 DM69XO > DM69JP 58.4 miles 274° 2019-09-05 09:39:42
QUAIL 3 2019-09-05 09:49:07 2019-09-05 10:08:01 DM69SO > DM69TA 41.7 miles 176° 2019-09-05 10:08:01
K5RHD-9 1 2019-09-11 20:00:20 2019-09-11 20:00:20 DM79JU > DM79KV 7.7 miles 87° 2019-09-11 20:00:20
SKING 11 2019-09-05 12:32:31 2019-09-11 14:55:01 DM59OE > DM68EI 85.6 miles 132° 2019-09-05 13:01:22
BVILLE 22 2019-09-05 09:01:03 2019-09-11 19:27:57 DM69WM > DM79CQ 21.7 miles 64° 2019-09-11 18:33:33
K0XK-5 5 2019-09-05 08:30:17 2019-09-11 19:55:56 DM79JU > DM79OO 29.0 miles 128° 2019-09-05 08:30:17
N4YRE 7 2019-09-05 08:45:17 2019-09-11 19:57:08 DM79JU > DM79NQ 23.2 miles 120° 2019-09-11 19:57:08
ERIDGE 3 2019-09-05 09:32:41 2019-09-11 18:04:36 DM79AQ > DM69SU 26.2 miles 296° 2019-09-05 09:32:41
N0EPA-1 9 2019-09-11 20:04:54 2019-09-11 21:07:49 DM79JW > DN70KE 19.0 miles 24° 2019-09-11 20:04:54
CEDRMT 12 2019-09-05 14:08:38 2019-09-11 13:11:46 DM48XW > DM49QE 36.3 miles 298° 2019-09-11 13:11:46
PANDO 2 2019-09-05 09:35:32 2019-09-11 18:12:50 DM69XP > DM69TJ 25.1 miles 227° 2019-09-05 09:35:32
W0ARP 2 2019-09-05 08:30:04 2019-09-05 08:56:01 DM79JU > DM79QL 41.2 miles 129° 2019-09-05 08:30:04
K0NTS-5 6 2019-09-05 08:54:37 2019-09-11 19:32:58 DM79IQ > DM79GR 5.7 miles 282° 2019-09-11 19:32:58
W0ARP-3 7 2019-09-05 08:28:06 2019-09-11 20:10:51 DM79JX > DM79QL 47.4 miles 137° 2019-09-11 20:10:51
KB0TVJ-1 5 2019-09-05 08:10:16 2019-09-05 08:32:07 DM79JU > DN70JB 14.8 miles 5° 2019-09-05 08:32:07
N6BA-10 1 2019-09-05 08:58:06 2019-09-05 08:58:06 DM79HR > DM79OI 40.8 miles 128° 2019-09-05 08:58:06
WA0GEH-10 5 2019-09-05 08:31:50 2019-09-05 08:50:04 DM79JU > DM79MM 27.6 miles 147° 2019-09-05 08:31:50
K0PRW-10 16 2019-09-05 08:11:15 2019-09-11 20:20:54 DM79JU > DM79JW 8.5 miles 25° 2019-09-05 08:31:59
N3MCO-10 2 2019-09-05 08:17:11 2019-09-11 20:05:14 DM79JW > DN70IA 6.6 miles 348° 2019-09-11 20:05:14
K5RHD-15 3 2019-09-05 08:30:49 2019-09-05 08:41:44 DM79JS > DM79KU 9.9 miles 50° 2019-09-05 08:41:44
AB0TJ 5 2019-09-05 12:24:35 2019-09-11 14:54:51 DM59RC > DM59SB 3.9 miles 136° 2019-09-11 14:51:05
W0UPS-15 3 2019-09-05 08:25:59 2019-09-11 20:06:06 DM79JW > DN70JN 41.7 miles 3° 2019-09-05 08:27:09

Only position packets which were originated by the station are shown here. The range statistics show some extra long hops, because some digipeaters do not correctly add themselves to the digipeater path. Please check the raw packets.
About this site
This page shows real-time information collected from the Automatic Position Reporting System Internet network (APRS-IS). APRS is used by amateur (ham) radio operators to transmit real-time position information, weather data, telemetry and messages over the radio. A vehicle equipped with a GPS receiver, a VHF transmitter or HF transceiver and a small computer device called a tracker transmits it's location, speed and course in a small data packet, which is then received by a nearby iGate receiving site which forwards the packet on the Internet. Systems connected to the Internet can send information on the APRS-IS without a radio transmitter, or collect and display information transmitted anywhere in the world.
User guide · FAQ · Blog · Discussion group · Linking to aprs.fi · AIS sites · Service status · Database statistics · Advertising on aprs.fi · Technical details · API · Change log · Planned changes · Credits and thanks · Terms Of Service · iPhone/iPad APRS